Petra — 9HA3655 — position and weather

sailwx.info

Track history (hours):
 
Tides and Currents Weather Stations Pressure Air Temp Water Temp Dewpoint Dewpoint Depression Visibility Wind Speed Wind Dir Waves Ship Positions

Petra

Last reported at 2018-Feb-19 18:28 UTC. Time now 2018-Feb-23 05:07 UTC.
Position N 51°28' W 004°07'.

Length 180 m; draft 8.6 m.

Type: Cargo ship. MMSI: 229843000.

Date/timePositionNaut miles runAvg speedWind from/ knotsBaromVisibWave heightAir tempDewpointWater temp
2018-Feb-19 18:28N 51°28' W 004°07'0 0.0
2018-Feb-18 11:07N 51°28' W 004°07'0 0.0
2018-Feb-17 19:34N 51°28' W 004°07'0 0.1
2018-Feb-17 19:22N 51°28' W 004°07'0 0.0
2018-Feb-17 14:01N 51°28' W 004°07'3 0.6
2018-Feb-17 09:26N 51°27' W 004°11'611.1
2018-Feb-17 08:52N 51°24' W 004°20'411.8
2018-Feb-17 08:31N 51°23' W 004°27'712.3
2018-Feb-17 07:58N 51°22' W 004°37'612.8
2018-Feb-17 07:30N 51°21' W 004°47'611.9
2018-Feb-17 07:01N 51°20' W 004°56'0 0.5
2018-Feb-17 06:30N 51°21' W 004°56'0 0.2
2018-Feb-17 06:00N 51°21' W 004°56'3 5.8
2018-Feb-17 05:29N 51°20' W 004°52'4 8.8
2018-Feb-17 05:01N 51°18' W 004°46'3 5.8
2018-Feb-17 04:24N 51°15' W 004°42'511.5
2018-Feb-17 04:00N 51°13' W 004°48'612.8
2018-Feb-17 03:30N 51°08' W 004°55'612.5
2018-Feb-17 03:00N 51°03' W 005°01'612.3
2018-Feb-17 02:30N 50°58' W 005°07'612.0
2018-Feb-17 02:00N 50°54' W 005°13'611.8
2018-Feb-17 01:30N 50°49' W 005°19'611.7
2018-Feb-17 01:01N 50°45' W 005°25'611.4
2018-Feb-17 00:30N 50°40' W 005°30'611.2
2018-Feb-17 00:00N 50°36' W 005°36'611.0
2018-Feb-16 23:30N 50°31' W 005°41'510.7
2018-Feb-16 23:01N 50°27' W 005°46'510.5
2018-Feb-16 22:30N 50°23' W 005°52'510.0
2018-Feb-16 22:00N 50°19' W 005°55'510.4
2018-Feb-16 21:31N 50°13' W 005°54'510.1
2018-Feb-16 20:59N 50°08' W 005°54'510.0
2018-Feb-16 20:29N 50°03' W 005°53'11 8.0
2018-Feb-16 19:05N 49°55' W 005°41'2 9.7
2018-Feb-16 18:55N 49°54' W 005°39'4 9.6
2018-Feb-16 18:29N 49°54' W 005°33'8 9.4
2018-Feb-16 17:37N 49°53' W 005°20'2 9.3
2018-Feb-16 17:23N 49°53' W 005°17'4 9.3
2018-Feb-16 17:00N 49°53' W 005°11'5 9.6
2018-Feb-16 16:31N 49°53' W 005°04'5 9.9
2018-Feb-16 16:01N 49°53' W 004°56'510.3
2018-Feb-16 15:30N 49°54' W 004°48'510.6
2018-Feb-16 15:00N 49°55' W 004°40'611.1
2018-Feb-16 14:30N 49°55' W 004°31'611.2
2018-Feb-16 14:01N 49°55' W 004°23'611.7
2018-Feb-16 13:30N 49°56' W 004°14'612.0
2018-Feb-16 12:58N 49°56' W 004°04'612.2
2018-Feb-16 12:30N 49°57' W 003°55'612.3
2018-Feb-16 12:00N 49°57' W 003°46'612.1
2018-Feb-16 11:31N 49°58' W 003°36'612.2
2018-Feb-16 11:00N 49°59' W 003°27'611.8
2018-Feb-16 10:31N 49°59' W 003°18'611.1
2018-Feb-16 10:00N 50°00' W 003°09'510.6
2018-Feb-16 09:30N 50°01' W 003°01'510.6
2018-Feb-16 09:01N 50°02' W 002°53'510.0
2018-Feb-16 08:30N 50°02' W 002°45'5 9.6
2018-Feb-16 08:01N 50°03' W 002°38'6 9.3
2018-Feb-16 07:20N 50°05' W 002°28'18 9.6
2018-Feb-16 05:26N 50°10' W 002°01'410.5
2018-Feb-16 05:01N 50°12' W 001°54'611.3
2018-Feb-16 04:29N 50°13' W 001°46'612.2
2018-Feb-16 04:00N 50°15' W 001°37'713.1
2018-Feb-16 03:30N 50°17' W 001°27'713.8
2018-Feb-16 03:00N 50°18' W 001°17'814.3
2018-Feb-16 02:28N 50°21' W 001°05'1014.0
2018-Feb-16 01:45N 50°23' W 000°50'413.4
2018-Feb-16 01:28N 50°24' W 000°44'613.2
2018-Feb-16 01:00N 50°26' W 000°35'612.7
2018-Feb-16 00:30N 50°28' W 000°25'612.0
2018-Feb-16 00:00N 50°29' W 000°16'611.5
2018-Feb-15 23:30N 50°31' W 000°07'510.7
2018-Feb-15 23:00N 50°32' E 000°01'510.3
2018-Feb-15 22:30N 50°33' E 000°09'5 9.9
2018-Feb-15 22:00N 50°34' E 000°16'5 9.7
2018-Feb-15 21:30N 50°36' E 000°24'5 9.6
2018-Feb-15 21:00N 50°37' E 000°31'5 9.7
2018-Feb-15 20:30N 50°40' E 000°37'510.1
2018-Feb-15 20:00N 50°42' E 000°44'510.5
2018-Feb-15 19:30N 50°45' E 000°51'611.2
2018-Feb-15 19:00N 50°49' E 000°58'612.0
2018-Feb-15 18:30N 50°52' E 001°05'612.3
2018-Feb-15 18:00N 50°57' E 001°12'713.0
2018-Feb-15 17:30N 51°01' E 001°20'613.0
2018-Feb-15 17:00N 51°05' E 001°28'612.2
2018-Feb-15 16:30N 51°09' E 001°36'611.6
2018-Feb-15 16:01N 51°12' E 001°43'510.7
2018-Feb-15 15:30N 51°16' E 001°49'510.4
2018-Feb-15 15:01N 51°21' E 001°52'5 9.5
2018-Feb-15 14:30N 51°25' E 001°55'5 9.1
2018-Feb-15 14:00N 51°29' E 001°60'5 9.0
2018-Feb-15 13:30N 51°32' E 002°04'5 9.3
2018-Feb-15 13:00N 51°36' E 002°09'5 9.4
2018-Feb-15 12:30N 51°40' E 002°14'5 9.6
2018-Feb-15 12:00N 51°43' E 002°19'510.1
2018-Feb-15 11:30N 51°47' E 002°25'510.6
2018-Feb-15 11:00N 51°51' E 002°30'611.1
2018-Feb-15 10:28N 51°55' E 002°37'711.6
2018-Feb-15 09:54N 52°00' E 002°44'4311.9
2018-Feb-15 06:16N 52°35' E 003°27'214 9.2
2018-Feb-14 07:03N 55°41' E 006°27'110.7
2018-Feb-14 06:59N 55°42' E 006°27'181 9.7
2018-Feb-13 12:13N 57°49' E 010°23'210.7
2018-Feb-13 12:00N 57°49' E 010°27'510.1
2018-Feb-13 11:30N 57°49' E 010°36'5 9.2
2018-Feb-13 11:00N 57°49' E 010°45'510.7
2018-Feb-13 10:30N 57°46' E 010°53'510.9
2018-Feb-13 10:00N 57°42' E 011°00'612.0
2018-Feb-13 09:30N 57°38' E 011°08'612.3
2018-Feb-13 09:00N 57°33' E 011°16'611.7
2018-Feb-13 08:30N 57°29' E 011°24'611.5
2018-Feb-13 08:00N 57°24' E 011°29'611.6
2018-Feb-13 07:30N 57°19' E 011°33'611.9
2018-Feb-13 07:00N 57°13' E 011°36'611.6
2018-Feb-13 06:30N 57°07' E 011°39'610.8
2018-Feb-13 06:00N 57°02' E 011°43'511.2
2018-Feb-13 05:30N 56°57' E 011°46'9810.6
2018-Feb-12 20:18N 55°22' E 011°02'510.0
2018-Feb-12 19:49N 55°18' E 011°03'410.7
2018-Feb-12 19:24N 55°14' E 011°06'411.2
2018-Feb-12 19:00N 55°09' E 011°03'611.5
2018-Feb-12 18:30N 55°04' E 011°02'611.7
2018-Feb-12 18:00N 54°58' E 010°59'611.4
2018-Feb-12 17:30N 54°53' E 010°54'611.6
2018-Feb-12 17:00N 54°48' E 010°52'5 9.2
2018-Feb-12 16:30N 54°43' E 010°53'5 9.1
2018-Feb-12 16:00N 54°40' E 010°59'510.8
2018-Feb-12 15:30N 54°37' E 011°07'611.1
2018-Feb-12 15:00N 54°35' E 011°16'611.0
2018-Feb-12 14:30N 54°32' E 011°24'510.9
2018-Feb-12 14:00N 54°30' E 011°33'510.9
2018-Feb-12 13:30N 54°27' E 011°41'510.6
2018-Feb-12 13:00N 54°26' E 011°50'510.1
2018-Feb-12 12:30N 54°26' E 011°58'5 9.9
2018-Feb-12 12:00N 54°26' E 012°07'5 9.9
2018-Feb-12 11:30N 54°30' E 012°12'610.9
2018-Feb-12 11:00N 54°35' E 012°14'59 9.9
2018-Feb-12 05:02N 55°00' E 013°47'210.3
2018-Feb-12 04:52N 55°01' E 013°50'1010.3
2018-Feb-12 03:54N 55°04' E 014°06'410.4
2018-Feb-12 03:30N 55°08' E 014°10'610.5
2018-Feb-12 02:56N 55°12' E 014°16'510.7
2018-Feb-12 02:30N 55°16' E 014°21'810.8
2018-Feb-12 01:44N 55°23' E 014°30'210.7
2018-Feb-12 01:30N 55°25' E 014°33'610.5
2018-Feb-12 00:58N 55°28' E 014°41'510.8
2018-Feb-12 00:30N 55°30' E 014°49'610.7
2018-Feb-12 00:00N 55°32' E 014°58'510.7
2018-Feb-11 23:30N 55°35' E 015°06'610.5
2018-Feb-11 22:59N 55°37' E 015°15'510.5
2018-Feb-11 22:30N 55°39' E 015°23'510.3
2018-Feb-11 22:00N 55°40' E 015°32'510.2
2018-Feb-11 21:30N 55°41' E 015°41'5 9.9
2018-Feb-11 21:00N 55°42' E 015°49'5 9.9
2018-Feb-11 20:30N 55°43' E 015°58'5 9.9
2018-Feb-11 20:00N 55°45' E 016°06'510.3
2018-Feb-11 19:30N 55°46' E 016°15'510.2
2018-Feb-11 19:00N 55°48' E 016°24'510.3
2018-Feb-11 18:30N 55°49' E 016°33'510.3
2018-Feb-11 18:00N 55°50' E 016°42'510.7
2018-Feb-11 17:30N 55°51' E 016°51'611.1
2018-Feb-11 16:59N 55°53' E 017°01'  
Track history (hours):
 
Tides and Currents Weather Stations Pressure Air Temp Water Temp Dewpoint Dewpoint Depression Visibility Wind Speed Wind Dir Waves Ship Positions

Petra

Last reported at 2018-Feb-19 18:28 UTC. Time now 2018-Feb-23 05:07 UTC.
Position N 51°28' W 004°07'.

Length 180 m; draft 8.6 m.

Type: Cargo ship. MMSI: 229843000.

Date/timePositionNaut miles runAvg speedWind from/ knotsBaromVisibWave heightAir tempDewpointWater temp
2018-Feb-19 18:28N 51°28' W 004°07'0 0.0
2018-Feb-18 11:07N 51°28' W 004°07'0 0.0
2018-Feb-17 19:34N 51°28' W 004°07'0 0.1
2018-Feb-17 19:22N 51°28' W 004°07'0 0.0
2018-Feb-17 14:01N 51°28' W 004°07'3 0.6
2018-Feb-17 09:26N 51°27' W 004°11'611.1
2018-Feb-17 08:52N 51°24' W 004°20'411.8
2018-Feb-17 08:31N 51°23' W 004°27'712.3
2018-Feb-17 07:58N 51°22' W 004°37'612.8
2018-Feb-17 07:30N 51°21' W 004°47'611.9
2018-Feb-17 07:01N 51°20' W 004°56'0 0.5
2018-Feb-17 06:30N 51°21' W 004°56'0 0.2
2018-Feb-17 06:00N 51°21' W 004°56'3 5.8
2018-Feb-17 05:29N 51°20' W 004°52'4 8.8
2018-Feb-17 05:01N 51°18' W 004°46'3 5.8
2018-Feb-17 04:24N 51°15' W 004°42'511.5
2018-Feb-17 04:00N 51°13' W 004°48'612.8
2018-Feb-17 03:30N 51°08' W 004°55'612.5
2018-Feb-17 03:00N 51°03' W 005°01'612.3
2018-Feb-17 02:30N 50°58' W 005°07'612.0
2018-Feb-17 02:00N 50°54' W 005°13'611.8
2018-Feb-17 01:30N 50°49' W 005°19'611.7
2018-Feb-17 01:01N 50°45' W 005°25'611.4
2018-Feb-17 00:30N 50°40' W 005°30'611.2
2018-Feb-17 00:00N 50°36' W 005°36'611.0
2018-Feb-16 23:30N 50°31' W 005°41'510.7
2018-Feb-16 23:01N 50°27' W 005°46'510.5
2018-Feb-16 22:30N 50°23' W 005°52'510.0
2018-Feb-16 22:00N 50°19' W 005°55'510.4
2018-Feb-16 21:31N 50°13' W 005°54'510.1
2018-Feb-16 20:59N 50°08' W 005°54'510.0
2018-Feb-16 20:29N 50°03' W 005°53'11 8.0
2018-Feb-16 19:05N 49°55' W 005°41'2 9.7
2018-Feb-16 18:55N 49°54' W 005°39'4 9.6
2018-Feb-16 18:29N 49°54' W 005°33'8 9.4
2018-Feb-16 17:37N 49°53' W 005°20'2 9.3
2018-Feb-16 17:23N 49°53' W 005°17'4 9.3
2018-Feb-16 17:00N 49°53' W 005°11'5 9.6
2018-Feb-16 16:31N 49°53' W 005°04'5 9.9
2018-Feb-16 16:01N 49°53' W 004°56'510.3
2018-Feb-16 15:30N 49°54' W 004°48'510.6
2018-Feb-16 15:00N 49°55' W 004°40'611.1
2018-Feb-16 14:30N 49°55' W 004°31'611.2
2018-Feb-16 14:01N 49°55' W 004°23'611.7
2018-Feb-16 13:30N 49°56' W 004°14'612.0
2018-Feb-16 12:58N 49°56' W 004°04'612.2
2018-Feb-16 12:30N 49°57' W 003°55'612.3
2018-Feb-16 12:00N 49°57' W 003°46'612.1
2018-Feb-16 11:31N 49°58' W 003°36'612.2
2018-Feb-16 11:00N 49°59' W 003°27'611.8
2018-Feb-16 10:31N 49°59' W 003°18'611.1
2018-Feb-16 10:00N 50°00' W 003°09'510.6
2018-Feb-16 09:30N 50°01' W 003°01'510.6
2018-Feb-16 09:01N 50°02' W 002°53'510.0
2018-Feb-16 08:30N 50°02' W 002°45'5 9.6
2018-Feb-16 08:01N 50°03' W 002°38'6 9.3
2018-Feb-16 07:20N 50°05' W 002°28'18 9.6
2018-Feb-16 05:26N 50°10' W 002°01'410.5
2018-Feb-16 05:01N 50°12' W 001°54'611.3
2018-Feb-16 04:29N 50°13' W 001°46'612.2
2018-Feb-16 04:00N 50°15' W 001°37'713.1
2018-Feb-16 03:30N 50°17' W 001°27'713.8
2018-Feb-16 03:00N 50°18' W 001°17'814.3
2018-Feb-16 02:28N 50°21' W 001°05'1014.0
2018-Feb-16 01:45N 50°23' W 000°50'413.4
2018-Feb-16 01:28N 50°24' W 000°44'613.2
2018-Feb-16 01:00N 50°26' W 000°35'612.7
2018-Feb-16 00:30N 50°28' W 000°25'612.0
2018-Feb-16 00:00N 50°29' W 000°16'611.5
2018-Feb-15 23:30N 50°31' W 000°07'510.7
2018-Feb-15 23:00N 50°32' E 000°01'510.3
2018-Feb-15 22:30N 50°33' E 000°09'5 9.9
2018-Feb-15 22:00N 50°34' E 000°16'5 9.7
2018-Feb-15 21:30N 50°36' E 000°24'5 9.6
2018-Feb-15 21:00N 50°37' E 000°31'5 9.7
2018-Feb-15 20:30N 50°40' E 000°37'510.1
2018-Feb-15 20:00N 50°42' E 000°44'510.5
2018-Feb-15 19:30N 50°45' E 000°51'611.2
2018-Feb-15 19:00N 50°49' E 000°58'612.0
2018-Feb-15 18:30N 50°52' E 001°05'612.3
2018-Feb-15 18:00N 50°57' E 001°12'713.0
2018-Feb-15 17:30N 51°01' E 001°20'613.0
2018-Feb-15 17:00N 51°05' E 001°28'612.2
2018-Feb-15 16:30N 51°09' E 001°36'611.6
2018-Feb-15 16:01N 51°12' E 001°43'510.7
2018-Feb-15 15:30N 51°16' E 001°49'510.4
2018-Feb-15 15:01N 51°21' E 001°52'5 9.5
2018-Feb-15 14:30N 51°25' E 001°55'5 9.1
2018-Feb-15 14:00N 51°29' E 001°60'5 9.0
2018-Feb-15 13:30N 51°32' E 002°04'5 9.3
2018-Feb-15 13:00N 51°36' E 002°09'5 9.4
2018-Feb-15 12:30N 51°40' E 002°14'5 9.6
2018-Feb-15 12:00N 51°43' E 002°19'510.1
2018-Feb-15 11:30N 51°47' E 002°25'510.6
2018-Feb-15 11:00N 51°51' E 002°30'611.1
2018-Feb-15 10:28N 51°55' E 002°37'711.6
2018-Feb-15 09:54N 52°00' E 002°44'4311.9
2018-Feb-15 06:16N 52°35' E 003°27'214 9.2
2018-Feb-14 07:03N 55°41' E 006°27'110.7
2018-Feb-14 06:59N 55°42' E 006°27'181 9.7
2018-Feb-13 12:13N 57°49' E 010°23'210.7
2018-Feb-13 12:00N 57°49' E 010°27'510.1
2018-Feb-13 11:30N 57°49' E 010°36'5 9.2
2018-Feb-13 11:00N 57°49' E 010°45'510.7
2018-Feb-13 10:30N 57°46' E 010°53'510.9
2018-Feb-13 10:00N 57°42' E 011°00'612.0
2018-Feb-13 09:30N 57°38' E 011°08'612.3
2018-Feb-13 09:00N 57°33' E 011°16'611.7
2018-Feb-13 08:30N 57°29' E 011°24'611.5
2018-Feb-13 08:00N 57°24' E 011°29'611.6
2018-Feb-13 07:30N 57°19' E 011°33'611.9
2018-Feb-13 07:00N 57°13' E 011°36'611.6
2018-Feb-13 06:30N 57°07' E 011°39'610.8
2018-Feb-13 06:00N 57°02' E 011°43'511.2
2018-Feb-13 05:30N 56°57' E 011°46'9810.6
2018-Feb-12 20:18N 55°22' E 011°02'510.0
2018-Feb-12 19:49N 55°18' E 011°03'410.7
2018-Feb-12 19:24N 55°14' E 011°06'411.2
2018-Feb-12 19:00N 55°09' E 011°03'611.5
2018-Feb-12 18:30N 55°04' E 011°02'611.7
2018-Feb-12 18:00N 54°58' E 010°59'611.4
2018-Feb-12 17:30N 54°53' E 010°54'611.6
2018-Feb-12 17:00N 54°48' E 010°52'5 9.2
2018-Feb-12 16:30N 54°43' E 010°53'5 9.1
2018-Feb-12 16:00N 54°40' E 010°59'510.8
2018-Feb-12 15:30N 54°37' E 011°07'611.1
2018-Feb-12 15:00N 54°35' E 011°16'611.0
2018-Feb-12 14:30N 54°32' E 011°24'510.9
2018-Feb-12 14:00N 54°30' E 011°33'510.9
2018-Feb-12 13:30N 54°27' E 011°41'510.6
2018-Feb-12 13:00N 54°26' E 011°50'510.1
2018-Feb-12 12:30N 54°26' E 011°58'5 9.9
2018-Feb-12 12:00N 54°26' E 012°07'5 9.9
2018-Feb-12 11:30N 54°30' E 012°12'610.9
2018-Feb-12 11:00N 54°35' E 012°14'59 9.9
2018-Feb-12 05:02N 55°00' E 013°47'210.3
2018-Feb-12 04:52N 55°01' E 013°50'1010.3
2018-Feb-12 03:54N 55°04' E 014°06'410.4
2018-Feb-12 03:30N 55°08' E 014°10'610.5
2018-Feb-12 02:56N 55°12' E 014°16'510.7
2018-Feb-12 02:30N 55°16' E 014°21'810.8
2018-Feb-12 01:44N 55°23' E 014°30'210.7
2018-Feb-12 01:30N 55°25' E 014°33'610.5
2018-Feb-12 00:58N 55°28' E 014°41'510.8
2018-Feb-12 00:30N 55°30' E 014°49'610.7
2018-Feb-12 00:00N 55°32' E 014°58'510.7
2018-Feb-11 23:30N 55°35' E 015°06'610.5
2018-Feb-11 22:59N 55°37' E 015°15'510.5
2018-Feb-11 22:30N 55°39' E 015°23'510.3
2018-Feb-11 22:00N 55°40' E 015°32'510.2
2018-Feb-11 21:30N 55°41' E 015°41'5 9.9
2018-Feb-11 21:00N 55°42' E 015°49'5 9.9
2018-Feb-11 20:30N 55°43' E 015°58'5 9.9
2018-Feb-11 20:00N 55°45' E 016°06'510.3
2018-Feb-11 19:30N 55°46' E 016°15'510.2
2018-Feb-11 19:00N 55°48' E 016°24'510.3
2018-Feb-11 18:30N 55°49' E 016°33'510.3
2018-Feb-11 18:00N 55°50' E 016°42'510.7
2018-Feb-11 17:30N 55°51' E 016°51'611.1
2018-Feb-11 16:59N 55°53' E 017°01'  

Dump ship's entire track history